Time;durP1;ratioP1;P1;durP2;ratioP2;P2;SDS_P1;SDS_P2;PMS_P1;PMS_P2;Temp;Humidity;BMP_temperature;BMP_pressure;BME280_temperature;BME280_humidity;BME280_pressure;Samples;Min_cycle;Max_cycle;Signal;HPM_P1;HPM_P2
2023/11/07 00:03:09;;;;;;;5.4;2.4;;;;;;;6.2;81.16;;;;;
2023/11/07 00:14:09;;;;;;;8.4;4.4;;;;;;;5.82;82.36;;;;;
2023/11/07 00:25:09;;;;;;;8.4;4.4;;;;;;;5.88;82.66;;;;;
2023/11/07 00:36:09;;;;;;;8.4;4.4;;;;;;;5.65;82.89;;;;;
2023/11/07 00:47:09;;;;;;;10.3;5.7;;;;;;;5.53;82.92;;;;;
2023/11/07 00:58:09;;;;;;;10.3;5.7;;;;;;;5.45;84.24;;;;;
2023/11/07 01:09:11;;;;;;;10.3;5.7;;;;;;;5.41;83.34;;;;;
2023/11/07 01:19:10;;;;;;;9.7;4.7;;;;;;;5.3;83.84;;;;;
2023/11/07 01:30:09;;;;;;;9.7;4.7;;;;;;;5.37;85.24;;;;;
2023/11/07 01:40:09;;;;;;;8.4;3.9;;;;;;;5.47;85.21;;;;;
2023/11/07 01:50:09;;;;;;;8.4;3.9;;;;;;;5.67;85.05;;;;;
2023/11/07 02:01:09;;;;;;;8.4;3.9;;;;;;;5.69;84.89;;;;;
2023/11/07 02:11:09;;;;;;;4.4;1.5;;;;;;;6.63;85.51;;;;;
2023/11/07 02:22:09;;;;;;;4.4;1.5;;;;;;;6.99;83.29;;;;;
2023/11/07 02:32:09;;;;;;;4.4;1.5;;;;;;;7.1;82.45;;;;;
2023/11/07 02:43:10;;;;;;;3.6;1.5;;;;;;;6.95;80.04;;;;;
2023/11/07 02:53:09;;;;;;;3.6;1.5;;;;;;;6.2;79.38;;;;;
2023/11/07 03:04:11;;;;;;;3.6;1.5;;;;;;;5.66;79.92;;;;;
2023/11/07 03:15:09;;;;;;;15.2;7;;;;;;;5.48;81.85;;;;;
2023/11/07 03:26:10;;;;;;;15.2;7;;;;;;;6.41;85.28;;;;;
2023/11/07 03:37:09;;;;;;;15.2;7;;;;;;;6.79;83.7;;;;;
2023/11/07 03:47:09;;;;;;;5.2;2.4;;;;;;;6.08;80.6;;;;;
2023/11/07 03:57:09;;;;;;;5.2;2.4;;;;;;;5.73;80.72;;;;;
2023/11/07 04:08:09;;;;;;;5.2;2.4;;;;;;;5.34;81.71;;;;;
2023/11/07 04:19:09;;;;;;;10.8;5.2;;;;;;;5.21;82.44;;;;;
2023/11/07 04:29:09;;;;;;;10.8;5.2;;;;;;;5.11;83.51;;;;;
2023/11/07 04:39:09;;;;;;;7.7;3.5;;;;;;;5.07;83.79;;;;;
2023/11/07 04:49:09;;;;;;;7.7;3.5;;;;;;;5.07;84.89;;;;;
2023/11/07 05:00:10;;;;;;;7.7;3.5;;;;;;;5.53;86.85;;;;;
2023/11/07 05:10:09;;;;;;;3.5;2.1;;;;;;;6.64;87.38;;;;;
2023/11/07 05:21:09;;;;;;;3.5;2.1;;;;;;;7.39;85;;;;;
2023/11/07 05:31:10;;;;;;;3.5;2.1;;;;;;;7.79;83.47;;;;;
2023/11/07 05:41:09;;;;;;;3.1;1.3;;;;;;;8.17;82.27;;;;;
2023/11/07 05:51:09;;;;;;;3.1;1.3;;;;;;;8.41;81.2;;;;;
2023/11/07 06:02:10;;;;;;;3.1;1.3;;;;;;;8.55;80.96;;;;;
2023/11/07 06:12:09;;;;;;;3.6;1.5;;;;;;;8.6;80.64;;;;;
2023/11/07 06:23:09;;;;;;;3.6;1.5;;;;;;;8.8;80.44;;;;;
2023/11/07 06:34:10;;;;;;;3.6;1.5;;;;;;;9.33;80.38;;;;;
2023/11/07 06:44:09;;;;;;;3.7;1.4;;;;;;;9.67;79.17;;;;;
2023/11/07 06:54:09;;;;;;;3.7;1.4;;;;;;;9.85;77.89;;;;;
2023/11/07 07:05:12;;;;;;;3.7;1.4;;;;;;;9.92;77.71;;;;;
2023/11/07 07:15:10;;;;;;;4.9;1.9;;;;;;;10.12;77.57;;;;;
2023/11/07 07:25:15;;;;;;;4.9;1.9;;;;;;;10.23;77.27;;;;;
2023/11/07 07:36:14;;;;;;;4.9;1.9;;;;;;;10.27;76.73;;;;;
2023/11/07 07:46:10;;;;;;;12.8;6.4;;;;;;;10.38;76.23;;;;;
2023/11/07 07:56:13;;;;;;;12.8;6.4;;;;;;;10.43;76.18;;;;;
2023/11/07 08:07:09;;;;;;;12.8;6.4;;;;;;;10.64;76.03;;;;;
2023/11/07 08:18:10;;;;;;;9;5.7;;;;;;;10.96;75.67;;;;;
2023/11/07 08:29:11;;;;;;;9;5.7;;;;;;;11.37;74.65;;;;;
2023/11/07 08:39:19;;;;;;;7.8;3.9;;;;;;;11.74;73.57;;;;;
2023/11/07 08:49:09;;;;;;;7.8;3.9;;;;;;;12.01;71.9;;;;;
2023/11/07 09:00:09;;;;;;;7.8;3.9;;;;;;;12.37;70.34;;;;;
2023/11/07 09:10:11;;;;;;;7.7;4.1;;;;;;;12.51;68.09;;;;;
2023/11/07 09:21:09;;;;;;;7.7;4.1;;;;;;;12.81;67.73;;;;;
2023/11/07 09:31:10;;;;;;;7.7;4.1;;;;;;;13.04;65.05;;;;;
2023/11/07 09:41:10;;;;;;;5.1;2.7;;;;;;;13.13;64.82;;;;;
2023/11/07 09:52:10;;;;;;;5.1;2.7;;;;;;;13.25;64.2;;;;;
2023/11/07 10:02:09;;;;;;;5.1;2.7;;;;;;;13.34;62.84;;;;;
2023/11/07 10:12:09;;;;;;;4.8;2.1;;;;;;;13.39;61.87;;;;;
2023/11/07 10:22:09;;;;;;;4.8;2.1;;;;;;;13.52;62;;;;;
2023/11/07 10:32:10;;;;;;;4.8;2.1;;;;;;;13.54;61.81;;;;;
2023/11/07 10:42:09;;;;;;;6.6;2.2;;;;;;;13.89;61.72;;;;;
2023/11/07 10:53:11;;;;;;;6.6;2.2;;;;;;;14.03;59.8;;;;;
2023/11/07 11:03:10;;;;;;;6.6;2.2;;;;;;;14.1;59.87;;;;;
2023/11/07 11:14:09;;;;;;;4.5;1.8;;;;;;;13.86;58.32;;;;;
2023/11/07 11:25:09;;;;;;;4.5;1.8;;;;;;;14.05;58.57;;;;;
2023/11/07 11:35:09;;;;;;;4.5;1.8;;;;;;;14.19;56.63;;;;;
2023/11/07 11:45:09;;;;;;;4.1;1.8;;;;;;;14.47;56.03;;;;;
2023/11/07 11:56:11;;;;;;;4.1;1.8;;;;;;;14.5;54.27;;;;;
2023/11/07 12:06:09;;;;;;;4.1;1.8;;;;;;;14.51;51.72;;;;;
2023/11/07 12:16:10;;;;;;;4;1.3;;;;;;;14.47;52.38;;;;;
2023/11/07 12:26:10;;;;;;;4;1.3;;;;;;;14.43;52.48;;;;;
2023/11/07 12:36:09;;;;;;;4;1.3;;;;;;;14.66;53.53;;;;;
2023/11/07 12:46:09;;;;;;;4.1;1.7;;;;;;;14.47;51.19;;;;;
2023/11/07 12:57:09;;;;;;;4.1;1.7;;;;;;;14.41;51.9;;;;;
2023/11/07 13:08:09;;;;;;;4.1;1.7;;;;;;;14.38;51.91;;;;;
2023/11/07 13:18:09;;;;;;;6.2;2.5;;;;;;;14.16;51.13;;;;;
2023/11/07 13:29:10;;;;;;;6.2;2.5;;;;;;;14.1;52.82;;;;;
2023/11/07 13:40:09;;;;;;;6.4;3.2;;;;;;;14.1;53.22;;;;;
2023/11/07 13:50:09;;;;;;;6.4;3.2;;;;;;;13.79;53.79;;;;;
2023/11/07 14:01:09;;;;;;;6.4;3.2;;;;;;;13.32;54.32;;;;;
2023/11/07 14:11:10;;;;;;;6.2;2.4;;;;;;;12.89;55.86;;;;;
2023/11/07 14:21:14;;;;;;;6.2;2.4;;;;;;;12.46;57.25;;;;;
2023/11/07 14:32:10;;;;;;;6.2;2.4;;;;;;;11.96;59.19;;;;;
2023/11/07 14:43:10;;;;;;;7.4;2.9;;;;;;;11.5;60.86;;;;;
2023/11/07 14:53:10;;;;;;;7.4;2.9;;;;;;;10.95;61.77;;;;;
2023/11/07 15:04:09;;;;;;;7.4;2.9;;;;;;;10.3;64.04;;;;;
2023/11/07 15:14:09;;;;;;;4.1;1.7;;;;;;;9.77;65.64;;;;;
2023/11/07 15:25:11;;;;;;;4.1;1.7;;;;;;;9.43;68.82;;;;;
2023/11/07 15:36:10;;;;;;;4.1;1.7;;;;;;;9.14;69.36;;;;;
2023/11/07 15:46:11;;;;;;;7.7;3.2;;;;;;;8.82;70.61;;;;;
2023/11/07 15:57:09;;;;;;;7.7;3.2;;;;;;;8.72;70.94;;;;;
2023/11/07 16:07:09;;;;;;;7.7;3.2;;;;;;;8.59;71.57;;;;;
2023/11/07 16:18:10;;;;;;;4.8;2;;;;;;;8.4;71.97;;;;;
2023/11/07 16:28:09;;;;;;;4.8;2;;;;;;;8.2;72.46;;;;;
2023/11/07 16:39:12;;;;;;;10.8;6.4;;;;;;;7.97;75.47;;;;;
2023/11/07 16:49:09;;;;;;;10.8;6.4;;;;;;;7.76;75.65;;;;;
2023/11/07 17:00:11;;;;;;;10.8;6.4;;;;;;;7.58;76.6;;;;;
2023/11/07 17:10:10;;;;;;;21.9;10.7;;;;;;;7.35;77.22;;;;;
2023/11/07 17:21:11;;;;;;;21.9;10.7;;;;;;;7.42;77.43;;;;;
2023/11/07 17:31:09;;;;;;;21.9;10.7;;;;;;;7.5;77.56;;;;;
2023/11/07 17:41:09;;;;;;;15.2;6.3;;;;;;;7.59;77.91;;;;;
2023/11/07 17:52:12;;;;;;;15.2;6.3;;;;;;;7.81;78.81;;;;;
2023/11/07 18:02:09;;;;;;;15.2;6.3;;;;;;;8.13;77.95;;;;;
2023/11/07 18:13:10;;;;;;;11.6;5.5;;;;;;;8.54;75.96;;;;;
2023/11/07 18:23:12;;;;;;;11.6;5.5;;;;;;;8.4;75.89;;;;;
2023/11/07 18:34:09;;;;;;;11.6;5.5;;;;;;;8.31;76;;;;;
2023/11/07 18:45:10;;;;;;;13.7;6.2;;;;;;;8.13;76.37;;;;;
2023/11/07 18:56:10;;;;;;;13.7;6.2;;;;;;;7.89;77.74;;;;;
2023/11/07 19:07:12;;;;;;;13.7;6.2;;;;;;;7.9;78.03;;;;;
2023/11/07 19:17:10;;;;;;;15.7;9;;;;;;;7.83;77.74;;;;;
2023/11/07 19:28:09;;;;;;;15.7;9;;;;;;;7.7;78.4;;;;;
2023/11/07 19:39:10;;;;;;;19.3;12.5;;;;;;;7.66;79.09;;;;;
2023/11/07 19:50:09;;;;;;;19.3;12.5;;;;;;;7.72;79.82;;;;;
2023/11/07 20:01:11;;;;;;;19.3;12.5;;;;;;;7.7;80.26;;;;;
2023/11/07 20:11:10;;;;;;;29.3;18.6;;;;;;;7.71;80.22;;;;;
2023/11/07 20:22:10;;;;;;;29.3;18.6;;;;;;;7.73;80.1;;;;;
2023/11/07 20:33:10;;;;;;;29.3;18.6;;;;;;;7.78;80.14;;;;;
2023/11/07 20:43:10;;;;;;;29.9;17.6;;;;;;;7.69;81.29;;;;;
2023/11/07 20:54:10;;;;;;;29.9;17.6;;;;;;;7.79;81.32;;;;;
2023/11/07 21:04:10;;;;;;;29.9;17.6;;;;;;;7.61;83.04;;;;;
2023/11/07 21:15:09;;;;;;;28.4;17.5;;;;;;;7.71;82.43;;;;;
2023/11/07 21:25:09;;;;;;;28.4;17.5;;;;;;;7.4;83.32;;;;;
2023/11/07 21:35:09;;;;;;;28.4;17.5;;;;;;;7.35;82.76;;;;;
2023/11/07 21:46:09;;;;;;;33.7;20;;;;;;;7.19;83.45;;;;;
2023/11/07 21:56:12;;;;;;;33.7;20;;;;;;;7.12;83.79;;;;;
2023/11/07 22:06:10;;;;;;;33.7;20;;;;;;;7.09;84.45;;;;;
2023/11/07 22:17:09;;;;;;;38.3;22.5;;;;;;;7.06;84.97;;;;;
2023/11/07 22:27:10;;;;;;;38.3;22.5;;;;;;;7.23;84.65;;;;;
2023/11/07 22:37:09;;;;;;;38.3;22.5;;;;;;;7.18;84.78;;;;;
2023/11/07 22:47:10;;;;;;;36.6;20.4;;;;;;;7.22;84.67;;;;;
2023/11/07 22:57:10;;;;;;;36.6;20.4;;;;;;;7.1;84.33;;;;;
2023/11/07 23:08:10;;;;;;;30.5;17.1;;;;;;;6.87;84.74;;;;;
2023/11/07 23:18:10;;;;;;;30.5;17.1;;;;;;;6.81;84.42;;;;;
2023/11/07 23:29:10;;;;;;;30.5;17.1;;;;;;;6.73;84.2;;;;;
2023/11/07 23:39:10;;;;;;;23;14.3;;;;;;;6.5;85.12;;;;;
2023/11/07 23:50:10;;;;;;;23;14.3;;;;;;;6.29;85.09;;;;;
